Weather at Carnot Field

Public forecast

Using degrees Fahrenheit for public forecast. Weather courtesy of forecast.io.

Closest aviation weather report (METAR) to Carnot Field

Closest report is Door County Cherryland Airport, 12.1 nm (22.4 km) N. Retrieved 2020/11/24 18:56 UTC (1 hour ago):

KSUE 241856Z AUTO 15013G18KT 10SM -RA OVC005 02/01 A3009 RMK AO2 SLP197 P0001 T00170011 FZRANO

Closest aviation forecast (TAF) to Carnot Field

Closest forecast is Austin Straubel International Airport, 31.8 nm (58.9 km) WSW. Retrieved 2020/11/24 18:36 UTC (1 hour ago):

TAF KGRB 241733Z 2418/2518 14009KT 3SM -SN BKN007 OVC013 FM242000 15010G17KT 1 1/2SM RASN BR OVC004 FM250100 15008KT 1 1/2SM -RA BR OVC005 FM250800 04006KT 1 1/2SM -DZ BR OVC007 FM251200 03006KT 3SM BR OVC008 FM251600 04010G15KT P6SM OVC009